<?xml version="1.0" encoding="UTF-8" ?>
<gpx version="1.1" xmlns:xsi="http://www.w3.org/2001/XMLSchema-instance" 
    xmlns="http://www.topografix.com/GPX/1/1" 
    xsi:schemaLocation="http://www.topografix.com/GPX/1/1 http://www.topografix.com/GPX/1/1/gpx.xsd" 
    creator="Openrunner - https://www.openrunner.com" >	<trk>
						<name>10299295-VTT-Bussang-Circuit 8-Tour de la Hutte</name>
						<trkseg>
					<trkpt lat="47.889350" lon="6.881850">
						<ele>656</ele>
						<time>2019-07-30T08:11:39Z</time>
					</trkpt>
					<trkpt lat="47.889310" lon="6.881200">
						<ele>654</ele>
						<time>2019-07-30T08:11:49Z</time>
					</trkpt>
					<trkpt lat="47.889210" lon="6.880270">
						<ele>650</ele>
						<time>2019-07-30T08:12:04Z</time>
					</trkpt>
					<trkpt lat="47.889210" lon="6.879690">
						<ele>648</ele>
						<time>2019-07-30T08:12:13Z</time>
					</trkpt>
					<trkpt lat="47.889310" lon="6.879690">
						<ele>650</ele>
						<time>2019-07-30T08:12:15Z</time>
					</trkpt>
					<trkpt lat="47.889410" lon="6.879580">
						<ele>652</ele>
						<time>2019-07-30T08:12:18Z</time>
					</trkpt>
					<trkpt lat="47.889590" lon="6.879200">
						<ele>654</ele>
						<time>2019-07-30T08:12:26Z</time>
					</trkpt>
					<trkpt lat="47.889910" lon="6.878300">
						<ele>651</ele>
						<time>2019-07-30T08:12:42Z</time>
					</trkpt>
					<trkpt lat="47.889980" lon="6.878170">
						<ele>650</ele>
						<time>2019-07-30T08:12:44Z</time>
					</trkpt>
					<trkpt lat="47.890080" lon="6.878120">
						<ele>650</ele>
						<time>2019-07-30T08:12:47Z</time>
					</trkpt>
					<trkpt lat="47.890650" lon="6.878190">
						<ele>657</ele>
						<time>2019-07-30T08:13:00Z</time>
					</trkpt>
					<trkpt lat="47.890850" lon="6.878160">
						<ele>659</ele>
						<time>2019-07-30T08:13:05Z</time>
					</trkpt>
					<trkpt lat="47.891020" lon="6.878100">
						<ele>663</ele>
						<time>2019-07-30T08:13:09Z</time>
					</trkpt>
					<trkpt lat="47.891100" lon="6.878030">
						<ele>664</ele>
						<time>2019-07-30T08:13:11Z</time>
					</trkpt>
					<trkpt lat="47.891140" lon="6.877410">
						<ele>657</ele>
						<time>2019-07-30T08:13:21Z</time>
					</trkpt>
					<trkpt lat="47.891210" lon="6.877200">
						<ele>657</ele>
						<time>2019-07-30T08:13:24Z</time>
					</trkpt>
					<trkpt lat="47.891680" lon="6.876430">
						<ele>662</ele>
						<time>2019-07-30T08:13:41Z</time>
					</trkpt>
					<trkpt lat="47.891820" lon="6.876120">
						<ele>663</ele>
						<time>2019-07-30T08:13:46Z</time>
					</trkpt>
					<trkpt lat="47.891920" lon="6.875810">
						<ele>661</ele>
						<time>2019-07-30T08:13:52Z</time>
					</trkpt>
					<trkpt lat="47.892170" lon="6.875520">
						<ele>662</ele>
						<time>2019-07-30T08:13:59Z</time>
					</trkpt>
					<trkpt lat="47.892490" lon="6.875230">
						<ele>664</ele>
						<time>2019-07-30T08:14:08Z</time>
					</trkpt>
					<trkpt lat="47.892850" lon="6.875080">
						<ele>663</ele>
						<time>2019-07-30T08:14:17Z</time>
					</trkpt>
					<trkpt lat="47.893130" lon="6.875070">
						<ele>664</ele>
						<time>2019-07-30T08:14:23Z</time>
					</trkpt>
					<trkpt lat="47.893740" lon="6.875310">
						<ele>668</ele>
						<time>2019-07-30T08:14:38Z</time>
					</trkpt>
					<trkpt lat="47.893960" lon="6.875420">
						<ele>669</ele>
						<time>2019-07-30T08:14:43Z</time>
					</trkpt>
					<trkpt lat="47.894310" lon="6.875400">
						<ele>664</ele>
						<time>2019-07-30T08:14:52Z</time>
					</trkpt>
					<trkpt lat="47.895290" lon="6.875810">
						<ele>656</ele>
						<time>2019-07-30T08:15:15Z</time>
					</trkpt>
					<trkpt lat="47.895900" lon="6.876310">
						<ele>656</ele>
						<time>2019-07-30T08:15:32Z</time>
					</trkpt>
					<trkpt lat="47.896100" lon="6.876370">
						<ele>654</ele>
						<time>2019-07-30T08:15:36Z</time>
					</trkpt>
					<trkpt lat="47.896170" lon="6.876350">
						<ele>652</ele>
						<time>2019-07-30T08:15:38Z</time>
					</trkpt>
					<trkpt lat="47.896200" lon="6.876310">
						<ele>651</ele>
						<time>2019-07-30T08:15:39Z</time>
					</trkpt>
					<trkpt lat="47.896280" lon="6.876360">
						<ele>650</ele>
						<time>2019-07-30T08:15:41Z</time>
					</trkpt>
					<trkpt lat="47.896490" lon="6.876550">
						<ele>649</ele>
						<time>2019-07-30T08:15:47Z</time>
					</trkpt>
					<trkpt lat="47.896880" lon="6.877020">
						<ele>653</ele>
						<time>2019-07-30T08:15:58Z</time>
					</trkpt>
					<trkpt lat="47.897300" lon="6.877320">
						<ele>654</ele>
						<time>2019-07-30T08:16:09Z</time>
					</trkpt>
					<trkpt lat="47.897780" lon="6.877570">
						<ele>652</ele>
						<time>2019-07-30T08:16:21Z</time>
					</trkpt>
					<trkpt lat="47.898520" lon="6.877840">
						<ele>649</ele>
						<time>2019-07-30T08:16:39Z</time>
					</trkpt>
					<trkpt lat="47.898770" lon="6.878000">
						<ele>649</ele>
						<time>2019-07-30T08:16:45Z</time>
					</trkpt>
					<trkpt lat="47.899080" lon="6.878280">
						<ele>650</ele>
						<time>2019-07-30T08:16:54Z</time>
					</trkpt>
					<trkpt lat="47.899590" lon="6.878890">
						<ele>653</ele>
						<time>2019-07-30T08:17:09Z</time>
					</trkpt>
					<trkpt lat="47.899890" lon="6.879180">
						<ele>650</ele>
						<time>2019-07-30T08:17:17Z</time>
					</trkpt>
					<trkpt lat="47.900130" lon="6.879470">
						<ele>652</ele>
						<time>2019-07-30T08:17:25Z</time>
					</trkpt>
					<trkpt lat="47.900460" lon="6.880120">
						<ele>654</ele>
						<time>2019-07-30T08:17:37Z</time>
					</trkpt>
					<trkpt lat="47.901510" lon="6.881680">
						<ele>653</ele>
						<time>2019-07-30T08:18:12Z</time>
					</trkpt>
					<trkpt lat="47.901790" lon="6.882020">
						<ele>652</ele>
						<time>2019-07-30T08:18:20Z</time>
					</trkpt>
					<trkpt lat="47.902170" lon="6.882350">
						<ele>654</ele>
						<time>2019-07-30T08:18:31Z</time>
					</trkpt>
					<trkpt lat="47.902310" lon="6.882540">
						<ele>654</ele>
						<time>2019-07-30T08:18:35Z</time>
					</trkpt>
					<trkpt lat="47.902580" lon="6.883150">
						<ele>656</ele>
						<time>2019-07-30T08:18:47Z</time>
					</trkpt>
					<trkpt lat="47.902720" lon="6.883170">
						<ele>659</ele>
						<time>2019-07-30T08:18:50Z</time>
					</trkpt>
					<trkpt lat="47.902800" lon="6.883140">
						<ele>660</ele>
						<time>2019-07-30T08:18:52Z</time>
					</trkpt>
					<trkpt lat="47.902850" lon="6.883080">
						<ele>661</ele>
						<time>2019-07-30T08:18:53Z</time>
					</trkpt>
					<trkpt lat="47.902900" lon="6.882920">
						<ele>662</ele>
						<time>2019-07-30T08:18:56Z</time>
					</trkpt>
					<trkpt lat="47.902920" lon="6.881880">
						<ele>666</ele>
						<time>2019-07-30T08:19:12Z</time>
					</trkpt>
					<trkpt lat="47.902870" lon="6.881550">
						<ele>668</ele>
						<time>2019-07-30T08:19:18Z</time>
					</trkpt>
					<trkpt lat="47.902600" lon="6.880660">
						<ele>673</ele>
						<time>2019-07-30T08:19:33Z</time>
					</trkpt>
					<trkpt lat="47.902020" lon="6.879190">
						<ele>678</ele>
						<time>2019-07-30T08:20:00Z</time>
					</trkpt>
					<trkpt lat="47.901520" lon="6.877760">
						<ele>692</ele>
						<time>2019-07-30T08:20:25Z</time>
					</trkpt>
					<trkpt lat="47.900910" lon="6.876440">
						<ele>690</ele>
						<time>2019-07-30T08:20:50Z</time>
					</trkpt>
					<trkpt lat="47.900740" lon="6.876010">
						<ele>694</ele>
						<time>2019-07-30T08:20:58Z</time>
					</trkpt>
					<trkpt lat="47.900260" lon="6.875110">
						<ele>692</ele>
						<time>2019-07-30T08:21:16Z</time>
					</trkpt>
					<trkpt lat="47.900180" lon="6.874900">
						<ele>690</ele>
						<time>2019-07-30T08:21:20Z</time>
					</trkpt>
					<trkpt lat="47.900160" lon="6.874730">
						<ele>690</ele>
						<time>2019-07-30T08:21:22Z</time>
					</trkpt>
					<trkpt lat="47.900200" lon="6.874570">
						<ele>691</ele>
						<time>2019-07-30T08:21:25Z</time>
					</trkpt>
					<trkpt lat="47.900480" lon="6.874140">
						<ele>699</ele>
						<time>2019-07-30T08:21:34Z</time>
					</trkpt>
					<trkpt lat="47.900710" lon="6.873960">
						<ele>701</ele>
						<time>2019-07-30T08:21:40Z</time>
					</trkpt>
					<trkpt lat="47.900960" lon="6.873840">
						<ele>703</ele>
						<time>2019-07-30T08:21:47Z</time>
					</trkpt>
					<trkpt lat="47.901440" lon="6.873730">
						<ele>708</ele>
						<time>2019-07-30T08:21:58Z</time>
					</trkpt>
					<trkpt lat="47.901860" lon="6.873770">
						<ele>715</ele>
						<time>2019-07-30T08:22:08Z</time>
					</trkpt>
					<trkpt lat="47.902690" lon="6.873760">
						<ele>727</ele>
						<time>2019-07-30T08:22:27Z</time>
					</trkpt>
					<trkpt lat="47.903390" lon="6.873670">
						<ele>734</ele>
						<time>2019-07-30T08:22:44Z</time>
					</trkpt>
					<trkpt lat="47.904310" lon="6.873730">
						<ele>746</ele>
						<time>2019-07-30T08:23:05Z</time>
					</trkpt>
					<trkpt lat="47.905090" lon="6.873860">
						<ele>749</ele>
						<time>2019-07-30T08:23:23Z</time>
					</trkpt>
					<trkpt lat="47.905310" lon="6.873840">
						<ele>750</ele>
						<time>2019-07-30T08:23:29Z</time>
					</trkpt>
					<trkpt lat="47.905480" lon="6.873760">
						<ele>750</ele>
						<time>2019-07-30T08:23:33Z</time>
					</trkpt>
					<trkpt lat="47.905570" lon="6.873650">
						<ele>749</ele>
						<time>2019-07-30T08:23:35Z</time>
					</trkpt>
					<trkpt lat="47.905590" lon="6.873490">
						<ele>747</ele>
						<time>2019-07-30T08:23:38Z</time>
					</trkpt>
					<trkpt lat="47.905570" lon="6.873340">
						<ele>745</ele>
						<time>2019-07-30T08:23:40Z</time>
					</trkpt>
					<trkpt lat="47.904050" lon="6.870770">
						<ele>767</ele>
						<time>2019-07-30T08:24:34Z</time>
					</trkpt>
					<trkpt lat="47.903800" lon="6.870180">
						<ele>775</ele>
						<time>2019-07-30T08:24:45Z</time>
					</trkpt>
					<trkpt lat="47.903560" lon="6.869710">
						<ele>780</ele>
						<time>2019-07-30T08:24:54Z</time>
					</trkpt>
					<trkpt lat="47.903280" lon="6.869340">
						<ele>784</ele>
						<time>2019-07-30T08:25:03Z</time>
					</trkpt>
					<trkpt lat="47.903540" lon="6.869130">
						<ele>793</ele>
						<time>2019-07-30T08:25:10Z</time>
					</trkpt>
					<trkpt lat="47.903720" lon="6.869170">
						<ele>795</ele>
						<time>2019-07-30T08:25:14Z</time>
					</trkpt>
					<trkpt lat="47.903880" lon="6.869130">
						<ele>799</ele>
						<time>2019-07-30T08:25:18Z</time>
					</trkpt>
					<trkpt lat="47.903970" lon="6.869350">
						<ele>795</ele>
						<time>2019-07-30T08:25:22Z</time>
					</trkpt>
					<trkpt lat="47.904030" lon="6.869410">
						<ele>795</ele>
						<time>2019-07-30T08:25:24Z</time>
					</trkpt>
					<trkpt lat="47.904150" lon="6.869670">
						<ele>793</ele>
						<time>2019-07-30T08:25:29Z</time>
					</trkpt>
					<trkpt lat="47.904280" lon="6.869860">
						<ele>793</ele>
						<time>2019-07-30T08:25:33Z</time>
					</trkpt>
					<trkpt lat="47.904780" lon="6.870380">
						<ele>799</ele>
						<time>2019-07-30T08:25:47Z</time>
					</trkpt>
					<trkpt lat="47.905450" lon="6.870940">
						<ele>805</ele>
						<time>2019-07-30T08:26:05Z</time>
					</trkpt>
					<trkpt lat="47.906280" lon="6.871350">
						<ele>809</ele>
						<time>2019-07-30T08:26:25Z</time>
					</trkpt>
					<trkpt lat="47.906800" lon="6.871380">
						<ele>818</ele>
						<time>2019-07-30T08:26:37Z</time>
					</trkpt>
					<trkpt lat="47.906950" lon="6.871420">
						<ele>820</ele>
						<time>2019-07-30T08:26:41Z</time>
					</trkpt>
					<trkpt lat="47.907230" lon="6.871640">
						<ele>821</ele>
						<time>2019-07-30T08:26:48Z</time>
					</trkpt>
					<trkpt lat="47.907540" lon="6.871950">
						<ele>820</ele>
						<time>2019-07-30T08:26:57Z</time>
					</trkpt>
					<trkpt lat="47.907780" lon="6.872240">
						<ele>820</ele>
						<time>2019-07-30T08:27:04Z</time>
					</trkpt>
					<trkpt lat="47.908040" lon="6.872480">
						<ele>822</ele>
						<time>2019-07-30T08:27:12Z</time>
					</trkpt>
					<trkpt lat="47.908530" lon="6.872910">
						<ele>826</ele>
						<time>2019-07-30T08:27:25Z</time>
					</trkpt>
					<trkpt lat="47.909220" lon="6.873410">
						<ele>831</ele>
						<time>2019-07-30T08:27:43Z</time>
					</trkpt>
					<trkpt lat="47.909300" lon="6.873520">
						<ele>832</ele>
						<time>2019-07-30T08:27:45Z</time>
					</trkpt>
					<trkpt lat="47.910150" lon="6.875060">
						<ele>841</ele>
						<time>2019-07-30T08:28:16Z</time>
					</trkpt>
					<trkpt lat="47.910450" lon="6.875420">
						<ele>846</ele>
						<time>2019-07-30T08:28:25Z</time>
					</trkpt>
					<trkpt lat="47.910680" lon="6.875850">
						<ele>845</ele>
						<time>2019-07-30T08:28:34Z</time>
					</trkpt>
					<trkpt lat="47.910760" lon="6.876160">
						<ele>847</ele>
						<time>2019-07-30T08:28:39Z</time>
					</trkpt>
					<trkpt lat="47.910750" lon="6.876330">
						<ele>848</ele>
						<time>2019-07-30T08:28:42Z</time>
					</trkpt>
					<trkpt lat="47.910710" lon="6.876450">
						<ele>847</ele>
						<time>2019-07-30T08:28:44Z</time>
					</trkpt>
					<trkpt lat="47.910630" lon="6.876550">
						<ele>847</ele>
						<time>2019-07-30T08:28:46Z</time>
					</trkpt>
					<trkpt lat="47.909840" lon="6.876800">
						<ele>849</ele>
						<time>2019-07-30T08:29:05Z</time>
					</trkpt>
					<trkpt lat="47.909460" lon="6.876850">
						<ele>850</ele>
						<time>2019-07-30T08:29:14Z</time>
					</trkpt>
					<trkpt lat="47.909000" lon="6.876970">
						<ele>855</ele>
						<time>2019-07-30T08:29:25Z</time>
					</trkpt>
					<trkpt lat="47.908460" lon="6.877060">
						<ele>857</ele>
						<time>2019-07-30T08:29:38Z</time>
					</trkpt>
					<trkpt lat="47.907710" lon="6.877290">
						<ele>863</ele>
						<time>2019-07-30T08:29:56Z</time>
					</trkpt>
					<trkpt lat="47.907270" lon="6.877540">
						<ele>869</ele>
						<time>2019-07-30T08:30:07Z</time>
					</trkpt>
					<trkpt lat="47.906620" lon="6.877750">
						<ele>872</ele>
						<time>2019-07-30T08:30:22Z</time>
					</trkpt>
					<trkpt lat="47.906260" lon="6.877990">
						<ele>874</ele>
						<time>2019-07-30T08:30:31Z</time>
					</trkpt>
					<trkpt lat="47.906200" lon="6.878040">
						<ele>874</ele>
						<time>2019-07-30T08:30:33Z</time>
					</trkpt>
					<trkpt lat="47.906170" lon="6.878120">
						<ele>875</ele>
						<time>2019-07-30T08:30:34Z</time>
					</trkpt>
					<trkpt lat="47.906160" lon="6.878220">
						<ele>877</ele>
						<time>2019-07-30T08:30:36Z</time>
					</trkpt>
					<trkpt lat="47.906210" lon="6.878330">
						<ele>880</ele>
						<time>2019-07-30T08:30:38Z</time>
					</trkpt>
					<trkpt lat="47.906490" lon="6.878500">
						<ele>884</ele>
						<time>2019-07-30T08:30:45Z</time>
					</trkpt>
					<trkpt lat="47.906730" lon="6.878780">
						<ele>888</ele>
						<time>2019-07-30T08:30:52Z</time>
					</trkpt>
					<trkpt lat="47.907220" lon="6.879580">
						<ele>894</ele>
						<time>2019-07-30T08:31:09Z</time>
					</trkpt>
					<trkpt lat="47.907510" lon="6.880150">
						<ele>899</ele>
						<time>2019-07-30T08:31:21Z</time>
					</trkpt>
					<trkpt lat="47.907570" lon="6.880390">
						<ele>900</ele>
						<time>2019-07-30T08:31:25Z</time>
					</trkpt>
					<trkpt lat="47.907620" lon="6.880750">
						<ele>901</ele>
						<time>2019-07-30T08:31:30Z</time>
					</trkpt>
					<trkpt lat="47.907620" lon="6.881090">
						<ele>901</ele>
						<time>2019-07-30T08:31:36Z</time>
					</trkpt>
					<trkpt lat="47.907540" lon="6.881730">
						<ele>900</ele>
						<time>2019-07-30T08:31:46Z</time>
					</trkpt>
					<trkpt lat="47.907560" lon="6.882070">
						<ele>901</ele>
						<time>2019-07-30T08:31:51Z</time>
					</trkpt>
					<trkpt lat="47.907650" lon="6.882520">
						<ele>905</ele>
						<time>2019-07-30T08:31:58Z</time>
					</trkpt>
					<trkpt lat="47.907940" lon="6.883250">
						<ele>906</ele>
						<time>2019-07-30T08:32:12Z</time>
					</trkpt>
					<trkpt lat="47.908500" lon="6.884130">
						<ele>909</ele>
						<time>2019-07-30T08:32:31Z</time>
					</trkpt>
					<trkpt lat="47.909550" lon="6.885240">
						<ele>913</ele>
						<time>2019-07-30T08:33:01Z</time>
					</trkpt>
					<trkpt lat="47.910310" lon="6.885840">
						<ele>924</ele>
						<time>2019-07-30T08:33:21Z</time>
					</trkpt>
					<trkpt lat="47.910600" lon="6.886170">
						<ele>930</ele>
						<time>2019-07-30T08:33:29Z</time>
					</trkpt>
					<trkpt lat="47.910730" lon="6.886390">
						<ele>932</ele>
						<time>2019-07-30T08:33:34Z</time>
					</trkpt>
					<trkpt lat="47.911150" lon="6.887290">
						<ele>939</ele>
						<time>2019-07-30T08:33:51Z</time>
					</trkpt>
					<trkpt lat="47.911230" lon="6.887330">
						<ele>942</ele>
						<time>2019-07-30T08:33:53Z</time>
					</trkpt>
					<trkpt lat="47.911400" lon="6.887340">
						<ele>950</ele>
						<time>2019-07-30T08:33:57Z</time>
					</trkpt>
					<trkpt lat="47.911480" lon="6.887390">
						<ele>953</ele>
						<time>2019-07-30T08:33:59Z</time>
					</trkpt>
					<trkpt lat="47.911500" lon="6.887880">
						<ele>950</ele>
						<time>2019-07-30T08:34:07Z</time>
					</trkpt>
					<trkpt lat="47.911630" lon="6.888610">
						<ele>949</ele>
						<time>2019-07-30T08:34:19Z</time>
					</trkpt>
					<trkpt lat="47.911760" lon="6.889100">
						<ele>947</ele>
						<time>2019-07-30T08:34:27Z</time>
					</trkpt>
					<trkpt lat="47.911850" lon="6.889280">
						<ele>946</ele>
						<time>2019-07-30T08:34:30Z</time>
					</trkpt>
					<trkpt lat="47.911980" lon="6.889440">
						<ele>947</ele>
						<time>2019-07-30T08:34:34Z</time>
					</trkpt>
					<trkpt lat="47.912440" lon="6.889820">
						<ele>951</ele>
						<time>2019-07-30T08:34:47Z</time>
					</trkpt>
					<trkpt lat="47.912680" lon="6.889950">
						<ele>951</ele>
						<time>2019-07-30T08:34:53Z</time>
					</trkpt>
					<trkpt lat="47.913030" lon="6.890040">
						<ele>953</ele>
						<time>2019-07-30T08:35:01Z</time>
					</trkpt>
					<trkpt lat="47.914030" lon="6.889900">
						<ele>962</ele>
						<time>2019-07-30T08:35:24Z</time>
					</trkpt>
					<trkpt lat="47.914340" lon="6.889940">
						<ele>964</ele>
						<time>2019-07-30T08:35:32Z</time>
					</trkpt>
					<trkpt lat="47.914620" lon="6.890090">
						<ele>964</ele>
						<time>2019-07-30T08:35:39Z</time>
					</trkpt>
					<trkpt lat="47.914890" lon="6.890460">
						<ele>962</ele>
						<time>2019-07-30T08:35:47Z</time>
					</trkpt>
					<trkpt lat="47.915240" lon="6.890650">
						<ele>963</ele>
						<time>2019-07-30T08:35:56Z</time>
					</trkpt>
					<trkpt lat="47.915880" lon="6.890910">
						<ele>966</ele>
						<time>2019-07-30T08:36:11Z</time>
					</trkpt>
					<trkpt lat="47.915790" lon="6.890980">
						<ele>967</ele>
						<time>2019-07-30T08:36:14Z</time>
					</trkpt>
					<trkpt lat="47.915660" lon="6.891240">
						<ele>964</ele>
						<time>2019-07-30T08:36:19Z</time>
					</trkpt>
					<trkpt lat="47.915620" lon="6.891430">
						<ele>963</ele>
						<time>2019-07-30T08:36:22Z</time>
					</trkpt>
					<trkpt lat="47.915620" lon="6.891660">
						<ele>963</ele>
						<time>2019-07-30T08:36:25Z</time>
					</trkpt>
					<trkpt lat="47.915530" lon="6.891910">
						<ele>960</ele>
						<time>2019-07-30T08:36:30Z</time>
					</trkpt>
					<trkpt lat="47.915420" lon="6.892030">
						<ele>956</ele>
						<time>2019-07-30T08:36:33Z</time>
					</trkpt>
					<trkpt lat="47.915350" lon="6.892170">
						<ele>953</ele>
						<time>2019-07-30T08:36:36Z</time>
					</trkpt>
					<trkpt lat="47.915290" lon="6.892410">
						<ele>950</ele>
						<time>2019-07-30T08:36:40Z</time>
					</trkpt>
					<trkpt lat="47.915380" lon="6.893200">
						<ele>950</ele>
						<time>2019-07-30T08:36:52Z</time>
					</trkpt>
					<trkpt lat="47.915330" lon="6.893640">
						<ele>948</ele>
						<time>2019-07-30T08:36:59Z</time>
					</trkpt>
					<trkpt lat="47.915340" lon="6.894010">
						<ele>949</ele>
						<time>2019-07-30T08:37:05Z</time>
					</trkpt>
					<trkpt lat="47.915420" lon="6.894440">
						<ele>955</ele>
						<time>2019-07-30T08:37:12Z</time>
					</trkpt>
					<trkpt lat="47.915410" lon="6.894760">
						<ele>957</ele>
						<time>2019-07-30T08:37:17Z</time>
					</trkpt>
					<trkpt lat="47.915310" lon="6.895370">
						<ele>962</ele>
						<time>2019-07-30T08:37:27Z</time>
					</trkpt>
					<trkpt lat="47.915250" lon="6.895560">
						<ele>963</ele>
						<time>2019-07-30T08:37:30Z</time>
					</trkpt>
					<trkpt lat="47.914740" lon="6.896390">
						<ele>956</ele>
						<time>2019-07-30T08:37:48Z</time>
					</trkpt>
					<trkpt lat="47.914680" lon="6.896580">
						<ele>957</ele>
						<time>2019-07-30T08:37:51Z</time>
					</trkpt>
					<trkpt lat="47.914440" lon="6.897770">
						<ele>966</ele>
						<time>2019-07-30T08:38:11Z</time>
					</trkpt>
					<trkpt lat="47.913890" lon="6.898540">
						<ele>956</ele>
						<time>2019-07-30T08:38:28Z</time>
					</trkpt>
					<trkpt lat="47.913810" lon="6.898730">
						<ele>955</ele>
						<time>2019-07-30T08:38:32Z</time>
					</trkpt>
					<trkpt lat="47.913780" lon="6.898840">
						<ele>955</ele>
						<time>2019-07-30T08:38:34Z</time>
					</trkpt>
					<trkpt lat="47.913740" lon="6.899460">
						<ele>957</ele>
						<time>2019-07-30T08:38:43Z</time>
					</trkpt>
					<trkpt lat="47.913750" lon="6.899590">
						<ele>957</ele>
						<time>2019-07-30T08:38:45Z</time>
					</trkpt>
					<trkpt lat="47.914050" lon="6.900310">
						<ele>966</ele>
						<time>2019-07-30T08:38:59Z</time>
					</trkpt>
					<trkpt lat="47.914380" lon="6.901300">
						<ele>970</ele>
						<time>2019-07-30T08:39:16Z</time>
					</trkpt>
					<trkpt lat="47.914490" lon="6.902040">
						<ele>972</ele>
						<time>2019-07-30T08:39:28Z</time>
					</trkpt>
					<trkpt lat="47.914490" lon="6.902550">
						<ele>971</ele>
						<time>2019-07-30T08:39:36Z</time>
					</trkpt>
					<trkpt lat="47.914550" lon="6.903450">
						<ele>968</ele>
						<time>2019-07-30T08:39:50Z</time>
					</trkpt>
					<trkpt lat="47.914670" lon="6.904050">
						<ele>968</ele>
						<time>2019-07-30T08:40:00Z</time>
					</trkpt>
					<trkpt lat="47.915030" lon="6.905150">
						<ele>966</ele>
						<time>2019-07-30T08:40:19Z</time>
					</trkpt>
					<trkpt lat="47.915330" lon="6.905660">
						<ele>968</ele>
						<time>2019-07-30T08:40:30Z</time>
					</trkpt>
					<trkpt lat="47.915620" lon="6.906210">
						<ele>971</ele>
						<time>2019-07-30T08:40:41Z</time>
					</trkpt>
					<trkpt lat="47.915710" lon="6.906430">
						<ele>970</ele>
						<time>2019-07-30T08:40:45Z</time>
					</trkpt>
					<trkpt lat="47.915930" lon="6.906740">
						<ele>973</ele>
						<time>2019-07-30T08:40:52Z</time>
					</trkpt>
					<trkpt lat="47.916430" lon="6.908170">
						<ele>969</ele>
						<time>2019-07-30T08:41:17Z</time>
					</trkpt>
					<trkpt lat="47.916460" lon="6.908400">
						<ele>970</ele>
						<time>2019-07-30T08:41:21Z</time>
					</trkpt>
					<trkpt lat="47.916440" lon="6.908710">
						<ele>973</ele>
						<time>2019-07-30T08:41:25Z</time>
					</trkpt>
					<trkpt lat="47.916370" lon="6.909100">
						<ele>974</ele>
						<time>2019-07-30T08:41:32Z</time>
					</trkpt>
					<trkpt lat="47.916250" lon="6.909470">
						<ele>973</ele>
						<time>2019-07-30T08:41:38Z</time>
					</trkpt>
					<trkpt lat="47.915960" lon="6.909930">
						<ele>967</ele>
						<time>2019-07-30T08:41:48Z</time>
					</trkpt>
					<trkpt lat="47.915910" lon="6.910160">
						<ele>965</ele>
						<time>2019-07-30T08:41:52Z</time>
					</trkpt>
					<trkpt lat="47.915970" lon="6.910350">
						<ele>967</ele>
						<time>2019-07-30T08:41:55Z</time>
					</trkpt>
					<trkpt lat="47.916010" lon="6.910620">
						<ele>968</ele>
						<time>2019-07-30T08:41:59Z</time>
					</trkpt>
					<trkpt lat="47.916120" lon="6.911650">
						<ele>967</ele>
						<time>2019-07-30T08:42:16Z</time>
					</trkpt>
					<trkpt lat="47.916050" lon="6.912260">
						<ele>964</ele>
						<time>2019-07-30T08:42:25Z</time>
					</trkpt>
					<trkpt lat="47.916070" lon="6.912630">
						<ele>965</ele>
						<time>2019-07-30T08:42:31Z</time>
					</trkpt>
					<trkpt lat="47.916150" lon="6.913120">
						<ele>965</ele>
						<time>2019-07-30T08:42:39Z</time>
					</trkpt>
					<trkpt lat="47.916160" lon="6.913440">
						<ele>964</ele>
						<time>2019-07-30T08:42:44Z</time>
					</trkpt>
					<trkpt lat="47.915970" lon="6.915430">
						<ele>972</ele>
						<time>2019-07-30T08:43:16Z</time>
					</trkpt>
					<trkpt lat="47.915920" lon="6.915600">
						<ele>973</ele>
						<time>2019-07-30T08:43:19Z</time>
					</trkpt>
					<trkpt lat="47.915820" lon="6.915660">
						<ele>970</ele>
						<time>2019-07-30T08:43:21Z</time>
					</trkpt>
					<trkpt lat="47.915610" lon="6.915690">
						<ele>965</ele>
						<time>2019-07-30T08:43:26Z</time>
					</trkpt>
					<trkpt lat="47.915450" lon="6.915680">
						<ele>961</ele>
						<time>2019-07-30T08:43:30Z</time>
					</trkpt>
					<trkpt lat="47.915190" lon="6.915720">
						<ele>954</ele>
						<time>2019-07-30T08:43:36Z</time>
					</trkpt>
					<trkpt lat="47.914890" lon="6.915910">
						<ele>948</ele>
						<time>2019-07-30T08:43:43Z</time>
					</trkpt>
					<trkpt lat="47.914800" lon="6.916030">
						<ele>946</ele>
						<time>2019-07-30T08:43:46Z</time>
					</trkpt>
					<trkpt lat="47.914750" lon="6.916170">
						<ele>945</ele>
						<time>2019-07-30T08:43:49Z</time>
					</trkpt>
					<trkpt lat="47.914690" lon="6.916470">
						<ele>946</ele>
						<time>2019-07-30T08:43:54Z</time>
					</trkpt>
					<trkpt lat="47.914740" lon="6.916800">
						<ele>950</ele>
						<time>2019-07-30T08:43:59Z</time>
					</trkpt>
					<trkpt lat="47.914880" lon="6.917170">
						<ele>954</ele>
						<time>2019-07-30T08:44:06Z</time>
					</trkpt>
					<trkpt lat="47.914990" lon="6.917700">
						<ele>953</ele>
						<time>2019-07-30T08:44:14Z</time>
					</trkpt>
					<trkpt lat="47.915060" lon="6.917930">
						<ele>952</ele>
						<time>2019-07-30T08:44:18Z</time>
					</trkpt>
					<trkpt lat="47.915390" lon="6.918400">
						<ele>959</ele>
						<time>2019-07-30T08:44:29Z</time>
					</trkpt>
					<trkpt lat="47.915620" lon="6.918960">
						<ele>954</ele>
						<time>2019-07-30T08:44:39Z</time>
					</trkpt>
					<trkpt lat="47.916020" lon="6.919570">
						<ele>953</ele>
						<time>2019-07-30T08:44:53Z</time>
					</trkpt>
					<trkpt lat="47.916270" lon="6.919720">
						<ele>957</ele>
						<time>2019-07-30T08:44:59Z</time>
					</trkpt>
					<trkpt lat="47.916520" lon="6.919750">
						<ele>963</ele>
						<time>2019-07-30T08:45:05Z</time>
					</trkpt>
					<trkpt lat="47.916620" lon="6.919870">
						<ele>963</ele>
						<time>2019-07-30T08:45:08Z</time>
					</trkpt>
					<trkpt lat="47.916740" lon="6.920080">
						<ele>961</ele>
						<time>2019-07-30T08:45:12Z</time>
					</trkpt>
					<trkpt lat="47.916840" lon="6.920180">
						<ele>961</ele>
						<time>2019-07-30T08:45:15Z</time>
					</trkpt>
					<trkpt lat="47.916960" lon="6.920260">
						<ele>960</ele>
						<time>2019-07-30T08:45:18Z</time>
					</trkpt>
					<trkpt lat="47.917120" lon="6.920320">
						<ele>960</ele>
						<time>2019-07-30T08:45:22Z</time>
					</trkpt>
					<trkpt lat="47.917160" lon="6.920520">
						<ele>960</ele>
						<time>2019-07-30T08:45:25Z</time>
					</trkpt>
					<trkpt lat="47.917050" lon="6.920750">
						<ele>960</ele>
						<time>2019-07-30T08:45:29Z</time>
					</trkpt>
					<trkpt lat="47.916940" lon="6.920930">
						<ele>960</ele>
						<time>2019-07-30T08:45:33Z</time>
					</trkpt>
					<trkpt lat="47.916880" lon="6.921080">
						<ele>961</ele>
						<time>2019-07-30T08:45:36Z</time>
					</trkpt>
					<trkpt lat="47.916610" lon="6.921330">
						<ele>961</ele>
						<time>2019-07-30T08:45:43Z</time>
					</trkpt>
					<trkpt lat="47.916600" lon="6.921540">
						<ele>963</ele>
						<time>2019-07-30T08:45:47Z</time>
					</trkpt>
					<trkpt lat="47.916680" lon="6.921920">
						<ele>968</ele>
						<time>2019-07-30T08:45:53Z</time>
					</trkpt>
					<trkpt lat="47.916800" lon="6.922260">
						<ele>973</ele>
						<time>2019-07-30T08:45:59Z</time>
					</trkpt>
					<trkpt lat="47.916810" lon="6.922640">
						<ele>978</ele>
						<time>2019-07-30T08:46:05Z</time>
					</trkpt>
					<trkpt lat="47.916930" lon="6.923110">
						<ele>988</ele>
						<time>2019-07-30T08:46:13Z</time>
					</trkpt>
					<trkpt lat="47.916930" lon="6.923230">
						<ele>990</ele>
						<time>2019-07-30T08:46:15Z</time>
					</trkpt>
					<trkpt lat="47.916870" lon="6.923340">
						<ele>992</ele>
						<time>2019-07-30T08:46:17Z</time>
					</trkpt>
					<trkpt lat="47.916280" lon="6.923430">
						<ele>1001</ele>
						<time>2019-07-30T08:46:31Z</time>
					</trkpt>
					<trkpt lat="47.915820" lon="6.923410">
						<ele>1005</ele>
						<time>2019-07-30T08:46:41Z</time>
					</trkpt>
					<trkpt lat="47.914820" lon="6.923150">
						<ele>1010</ele>
						<time>2019-07-30T08:47:05Z</time>
					</trkpt>
					<trkpt lat="47.914440" lon="6.923020">
						<ele>1010</ele>
						<time>2019-07-30T08:47:14Z</time>
					</trkpt>
					<trkpt lat="47.914180" lon="6.922880">
						<ele>1009</ele>
						<time>2019-07-30T08:47:21Z</time>
					</trkpt>
					<trkpt lat="47.913910" lon="6.922690">
						<ele>1008</ele>
						<time>2019-07-30T08:47:28Z</time>
					</trkpt>
					<trkpt lat="47.913700" lon="6.922500">
						<ele>1006</ele>
						<time>2019-07-30T08:47:33Z</time>
					</trkpt>
					<trkpt lat="47.912940" lon="6.921720">
						<ele>996</ele>
						<time>2019-07-30T08:47:55Z</time>
					</trkpt>
					<trkpt lat="47.912510" lon="6.921330">
						<ele>995</ele>
						<time>2019-07-30T08:48:07Z</time>
					</trkpt>
					<trkpt lat="47.912010" lon="6.920970">
						<ele>988</ele>
						<time>2019-07-30T08:48:20Z</time>
					</trkpt>
					<trkpt lat="47.911500" lon="6.920840">
						<ele>990</ele>
						<time>2019-07-30T08:48:32Z</time>
					</trkpt>
					<trkpt lat="47.911440" lon="6.920800">
						<ele>990</ele>
						<time>2019-07-30T08:48:33Z</time>
					</trkpt>
					<trkpt lat="47.911370" lon="6.920720">
						<ele>989</ele>
						<time>2019-07-30T08:48:35Z</time>
					</trkpt>
					<trkpt lat="47.911260" lon="6.920490">
						<ele>985</ele>
						<time>2019-07-30T08:48:40Z</time>
					</trkpt>
					<trkpt lat="47.910980" lon="6.920170">
						<ele>980</ele>
						<time>2019-07-30T08:48:48Z</time>
					</trkpt>
					<trkpt lat="47.910770" lon="6.920000">
						<ele>977</ele>
						<time>2019-07-30T08:48:54Z</time>
					</trkpt>
					<trkpt lat="47.910540" lon="6.919870">
						<ele>976</ele>
						<time>2019-07-30T08:48:59Z</time>
					</trkpt>
					<trkpt lat="47.910140" lon="6.919730">
						<ele>978</ele>
						<time>2019-07-30T08:49:09Z</time>
					</trkpt>
					<trkpt lat="47.909830" lon="6.919400">
						<ele>974</ele>
						<time>2019-07-30T08:49:18Z</time>
					</trkpt>
					<trkpt lat="47.909480" lon="6.919170">
						<ele>973</ele>
						<time>2019-07-30T08:49:27Z</time>
					</trkpt>
					<trkpt lat="47.909280" lon="6.919000">
						<ele>976</ele>
						<time>2019-07-30T08:49:32Z</time>
					</trkpt>
					<trkpt lat="47.909230" lon="6.918840">
						<ele>976</ele>
						<time>2019-07-30T08:49:35Z</time>
					</trkpt>
					<trkpt lat="47.909270" lon="6.918670">
						<ele>974</ele>
						<time>2019-07-30T08:49:38Z</time>
					</trkpt>
					<trkpt lat="47.909440" lon="6.918470">
						<ele>969</ele>
						<time>2019-07-30T08:49:43Z</time>
					</trkpt>
					<trkpt lat="47.910270" lon="6.917660">
						<ele>952</ele>
						<time>2019-07-30T08:50:06Z</time>
					</trkpt>
					<trkpt lat="47.910440" lon="6.917300">
						<ele>949</ele>
						<time>2019-07-30T08:50:13Z</time>
					</trkpt>
					<trkpt lat="47.910880" lon="6.914450">
						<ele>926</ele>
						<time>2019-07-30T08:50:59Z</time>
					</trkpt>
					<trkpt lat="47.910880" lon="6.913080">
						<ele>912</ele>
						<time>2019-07-30T08:51:20Z</time>
					</trkpt>
					<trkpt lat="47.910720" lon="6.911650">
						<ele>906</ele>
						<time>2019-07-30T08:51:43Z</time>
					</trkpt>
					<trkpt lat="47.910150" lon="6.909550">
						<ele>903</ele>
						<time>2019-07-30T08:52:18Z</time>
					</trkpt>
					<trkpt lat="47.909720" lon="6.908550">
						<ele>893</ele>
						<time>2019-07-30T08:52:37Z</time>
					</trkpt>
					<trkpt lat="47.909590" lon="6.908370">
						<ele>893</ele>
						<time>2019-07-30T08:52:41Z</time>
					</trkpt>
					<trkpt lat="47.908730" lon="6.907670">
						<ele>896</ele>
						<time>2019-07-30T08:53:04Z</time>
					</trkpt>
					<trkpt lat="47.907890" lon="6.907070">
						<ele>899</ele>
						<time>2019-07-30T08:53:26Z</time>
					</trkpt>
					<trkpt lat="47.907770" lon="6.906900">
						<ele>899</ele>
						<time>2019-07-30T08:53:29Z</time>
					</trkpt>
					<trkpt lat="47.907720" lon="6.906540">
						<ele>898</ele>
						<time>2019-07-30T08:53:35Z</time>
					</trkpt>
					<trkpt lat="47.907780" lon="6.906250">
						<ele>900</ele>
						<time>2019-07-30T08:53:40Z</time>
					</trkpt>
					<trkpt lat="47.908070" lon="6.905850">
						<ele>893</ele>
						<time>2019-07-30T08:53:49Z</time>
					</trkpt>
					<trkpt lat="47.908620" lon="6.905480">
						<ele>877</ele>
						<time>2019-07-30T08:54:03Z</time>
					</trkpt>
					<trkpt lat="47.908750" lon="6.905170">
						<ele>874</ele>
						<time>2019-07-30T08:54:09Z</time>
					</trkpt>
					<trkpt lat="47.908760" lon="6.904940">
						<ele>873</ele>
						<time>2019-07-30T08:54:13Z</time>
					</trkpt>
					<trkpt lat="47.908630" lon="6.904060">
						<ele>868</ele>
						<time>2019-07-30T08:54:27Z</time>
					</trkpt>
					<trkpt lat="47.908530" lon="6.903760">
						<ele>867</ele>
						<time>2019-07-30T08:54:32Z</time>
					</trkpt>
					<trkpt lat="47.907390" lon="6.901710">
						<ele>857</ele>
						<time>2019-07-30T08:55:14Z</time>
					</trkpt>
					<trkpt lat="47.907150" lon="6.901490">
						<ele>856</ele>
						<time>2019-07-30T08:55:20Z</time>
					</trkpt>
					<trkpt lat="47.906340" lon="6.901100">
						<ele>859</ele>
						<time>2019-07-30T08:55:40Z</time>
					</trkpt>
					<trkpt lat="47.905960" lon="6.901120">
						<ele>863</ele>
						<time>2019-07-30T08:55:49Z</time>
					</trkpt>
					<trkpt lat="47.905460" lon="6.901440">
						<ele>868</ele>
						<time>2019-07-30T08:56:02Z</time>
					</trkpt>
					<trkpt lat="47.905020" lon="6.901570">
						<ele>867</ele>
						<time>2019-07-30T08:56:12Z</time>
					</trkpt>
					<trkpt lat="47.904900" lon="6.901550">
						<ele>867</ele>
						<time>2019-07-30T08:56:15Z</time>
					</trkpt>
					<trkpt lat="47.904700" lon="6.901260">
						<ele>863</ele>
						<time>2019-07-30T08:56:21Z</time>
					</trkpt>
					<trkpt lat="47.904600" lon="6.900850">
						<ele>857</ele>
						<time>2019-07-30T08:56:28Z</time>
					</trkpt>
					<trkpt lat="47.904560" lon="6.900480">
						<ele>855</ele>
						<time>2019-07-30T08:56:34Z</time>
					</trkpt>
					<trkpt lat="47.904570" lon="6.899970">
						<ele>852</ele>
						<time>2019-07-30T08:56:42Z</time>
					</trkpt>
					<trkpt lat="47.904970" lon="6.899190">
						<ele>839</ele>
						<time>2019-07-30T08:56:58Z</time>
					</trkpt>
					<trkpt lat="47.905090" lon="6.898740">
						<ele>835</ele>
						<time>2019-07-30T08:57:05Z</time>
					</trkpt>
					<trkpt lat="47.905040" lon="6.898200">
						<ele>834</ele>
						<time>2019-07-30T08:57:14Z</time>
					</trkpt>
					<trkpt lat="47.904800" lon="6.897170">
						<ele>829</ele>
						<time>2019-07-30T08:57:31Z</time>
					</trkpt>
					<trkpt lat="47.903870" lon="6.894880">
						<ele>811</ele>
						<time>2019-07-30T08:58:13Z</time>
					</trkpt>
					<trkpt lat="47.902790" lon="6.892950">
						<ele>797</ele>
						<time>2019-07-30T08:58:52Z</time>
					</trkpt>
					<trkpt lat="47.901730" lon="6.890380">
						<ele>783</ele>
						<time>2019-07-30T08:59:39Z</time>
					</trkpt>
					<trkpt lat="47.901690" lon="6.890440">
						<ele>786</ele>
						<time>2019-07-30T08:59:41Z</time>
					</trkpt>
					<trkpt lat="47.901260" lon="6.889870">
						<ele>796</ele>
						<time>2019-07-30T08:59:54Z</time>
					</trkpt>
					<trkpt lat="47.900580" lon="6.888630">
						<ele>800</ele>
						<time>2019-07-30T09:00:19Z</time>
					</trkpt>
					<trkpt lat="47.900340" lon="6.888380">
						<ele>804</ele>
						<time>2019-07-30T09:00:26Z</time>
					</trkpt>
					<trkpt lat="47.900110" lon="6.887910">
						<ele>805</ele>
						<time>2019-07-30T09:00:35Z</time>
					</trkpt>
					<trkpt lat="47.899670" lon="6.887360">
						<ele>815</ele>
						<time>2019-07-30T09:00:48Z</time>
					</trkpt>
					<trkpt lat="47.899220" lon="6.886370">
						<ele>818</ele>
						<time>2019-07-30T09:01:07Z</time>
					</trkpt>
					<trkpt lat="47.898480" lon="6.884960">
						<ele>826</ele>
						<time>2019-07-30T09:01:35Z</time>
					</trkpt>
					<trkpt lat="47.898120" lon="6.884150">
						<ele>831</ele>
						<time>2019-07-30T09:01:50Z</time>
					</trkpt>
					<trkpt lat="47.897680" lon="6.883730">
						<ele>837</ele>
						<time>2019-07-30T09:02:03Z</time>
					</trkpt>
					<trkpt lat="47.897260" lon="6.883060">
						<ele>839</ele>
						<time>2019-07-30T09:02:17Z</time>
					</trkpt>
					<trkpt lat="47.896900" lon="6.882640">
						<ele>840</ele>
						<time>2019-07-30T09:02:28Z</time>
					</trkpt>
					<trkpt lat="47.896170" lon="6.882070">
						<ele>839</ele>
						<time>2019-07-30T09:02:47Z</time>
					</trkpt>
					<trkpt lat="47.895990" lon="6.882040">
						<ele>843</ele>
						<time>2019-07-30T09:02:51Z</time>
					</trkpt>
					<trkpt lat="47.895740" lon="6.882100">
						<ele>846</ele>
						<time>2019-07-30T09:02:57Z</time>
					</trkpt>
					<trkpt lat="47.895610" lon="6.882310">
						<ele>847</ele>
						<time>2019-07-30T09:03:02Z</time>
					</trkpt>
					<trkpt lat="47.895560" lon="6.882730">
						<ele>852</ele>
						<time>2019-07-30T09:03:08Z</time>
					</trkpt>
					<trkpt lat="47.895600" lon="6.883280">
						<ele>860</ele>
						<time>2019-07-30T09:03:17Z</time>
					</trkpt>
					<trkpt lat="47.895570" lon="6.883670">
						<ele>863</ele>
						<time>2019-07-30T09:03:23Z</time>
					</trkpt>
					<trkpt lat="47.895360" lon="6.884470">
						<ele>865</ele>
						<time>2019-07-30T09:03:36Z</time>
					</trkpt>
					<trkpt lat="47.895330" lon="6.884660">
						<ele>867</ele>
						<time>2019-07-30T09:03:40Z</time>
					</trkpt>
					<trkpt lat="47.895370" lon="6.884970">
						<ele>874</ele>
						<time>2019-07-30T09:03:44Z</time>
					</trkpt>
					<trkpt lat="47.895350" lon="6.885190">
						<ele>876</ele>
						<time>2019-07-30T09:03:48Z</time>
					</trkpt>
					<trkpt lat="47.895200" lon="6.885480">
						<ele>875</ele>
						<time>2019-07-30T09:03:54Z</time>
					</trkpt>
					<trkpt lat="47.894970" lon="6.885770">
						<ele>871</ele>
						<time>2019-07-30T09:04:01Z</time>
					</trkpt>
					<trkpt lat="47.894610" lon="6.886500">
						<ele>878</ele>
						<time>2019-07-30T09:04:15Z</time>
					</trkpt>
					<trkpt lat="47.894430" lon="6.886730">
						<ele>877</ele>
						<time>2019-07-30T09:04:20Z</time>
					</trkpt>
					<trkpt lat="47.894380" lon="6.886850">
						<ele>876</ele>
						<time>2019-07-30T09:04:23Z</time>
					</trkpt>
					<trkpt lat="47.894350" lon="6.887070">
						<ele>877</ele>
						<time>2019-07-30T09:04:26Z</time>
					</trkpt>
					<trkpt lat="47.894440" lon="6.888470">
						<ele>882</ele>
						<time>2019-07-30T09:04:48Z</time>
					</trkpt>
					<trkpt lat="47.894440" lon="6.888850">
						<ele>880</ele>
						<time>2019-07-30T09:04:54Z</time>
					</trkpt>
					<trkpt lat="47.894510" lon="6.889090">
						<ele>882</ele>
						<time>2019-07-30T09:04:58Z</time>
					</trkpt>
					<trkpt lat="47.894580" lon="6.889210">
						<ele>884</ele>
						<time>2019-07-30T09:05:01Z</time>
					</trkpt>
					<trkpt lat="47.894910" lon="6.889520">
						<ele>895</ele>
						<time>2019-07-30T09:05:10Z</time>
					</trkpt>
					<trkpt lat="47.895380" lon="6.889890">
						<ele>905</ele>
						<time>2019-07-30T09:05:22Z</time>
					</trkpt>
					<trkpt lat="47.896250" lon="6.890280">
						<ele>925</ele>
						<time>2019-07-30T09:05:43Z</time>
					</trkpt>
					<trkpt lat="47.896400" lon="6.890480">
						<ele>925</ele>
						<time>2019-07-30T09:05:48Z</time>
					</trkpt>
					<trkpt lat="47.896610" lon="6.891050">
						<ele>921</ele>
						<time>2019-07-30T09:05:58Z</time>
					</trkpt>
					<trkpt lat="47.896930" lon="6.892530">
						<ele>919</ele>
						<time>2019-07-30T09:06:23Z</time>
					</trkpt>
					<trkpt lat="47.896980" lon="6.893110">
						<ele>917</ele>
						<time>2019-07-30T09:06:32Z</time>
					</trkpt>
					<trkpt lat="47.897110" lon="6.893710">
						<ele>916</ele>
						<time>2019-07-30T09:06:42Z</time>
					</trkpt>
					<trkpt lat="47.897230" lon="6.893950">
						<ele>917</ele>
						<time>2019-07-30T09:06:46Z</time>
					</trkpt>
					<trkpt lat="47.897330" lon="6.894030">
						<ele>921</ele>
						<time>2019-07-30T09:06:49Z</time>
					</trkpt>
					<trkpt lat="47.897880" lon="6.894850">
						<ele>930</ele>
						<time>2019-07-30T09:07:07Z</time>
					</trkpt>
					<trkpt lat="47.898050" lon="6.895300">
						<ele>929</ele>
						<time>2019-07-30T09:07:15Z</time>
					</trkpt>
					<trkpt lat="47.898320" lon="6.895880">
						<ele>930</ele>
						<time>2019-07-30T09:07:26Z</time>
					</trkpt>
					<trkpt lat="47.898520" lon="6.896200">
						<ele>932</ele>
						<time>2019-07-30T09:07:33Z</time>
					</trkpt>
					<trkpt lat="47.898650" lon="6.896460">
						<ele>932</ele>
						<time>2019-07-30T09:07:38Z</time>
					</trkpt>
					<trkpt lat="47.899240" lon="6.897830">
						<ele>933</ele>
						<time>2019-07-30T09:08:04Z</time>
					</trkpt>
					<trkpt lat="47.899380" lon="6.898240">
						<ele>934</ele>
						<time>2019-07-30T09:08:11Z</time>
					</trkpt>
					<trkpt lat="47.899810" lon="6.898950">
						<ele>941</ele>
						<time>2019-07-30T09:08:26Z</time>
					</trkpt>
					<trkpt lat="47.900370" lon="6.900560">
						<ele>953</ele>
						<time>2019-07-30T09:08:54Z</time>
					</trkpt>
					<trkpt lat="47.900410" lon="6.900830">
						<ele>952</ele>
						<time>2019-07-30T09:08:59Z</time>
					</trkpt>
					<trkpt lat="47.900380" lon="6.900870">
						<ele>950</ele>
						<time>2019-07-30T09:09:00Z</time>
					</trkpt>
					<trkpt lat="47.900380" lon="6.901040">
						<ele>949</ele>
						<time>2019-07-30T09:09:02Z</time>
					</trkpt>
					<trkpt lat="47.900450" lon="6.901340">
						<ele>951</ele>
						<time>2019-07-30T09:09:07Z</time>
					</trkpt>
					<trkpt lat="47.900430" lon="6.901780">
						<ele>949</ele>
						<time>2019-07-30T09:09:14Z</time>
					</trkpt>
					<trkpt lat="47.900040" lon="6.903040">
						<ele>940</ele>
						<time>2019-07-30T09:09:36Z</time>
					</trkpt>
					<trkpt lat="47.899770" lon="6.903760">
						<ele>934</ele>
						<time>2019-07-30T09:09:49Z</time>
					</trkpt>
					<trkpt lat="47.899590" lon="6.904050">
						<ele>930</ele>
						<time>2019-07-30T09:09:55Z</time>
					</trkpt>
					<trkpt lat="47.899530" lon="6.904230">
						<ele>929</ele>
						<time>2019-07-30T09:09:58Z</time>
					</trkpt>
					<trkpt lat="47.899460" lon="6.904320">
						<ele>928</ele>
						<time>2019-07-30T09:10:00Z</time>
					</trkpt>
					<trkpt lat="47.899040" lon="6.904430">
						<ele>919</ele>
						<time>2019-07-30T09:10:10Z</time>
					</trkpt>
					<trkpt lat="47.898950" lon="6.904550">
						<ele>920</ele>
						<time>2019-07-30T09:10:13Z</time>
					</trkpt>
					<trkpt lat="47.898890" lon="6.904730">
						<ele>922</ele>
						<time>2019-07-30T09:10:16Z</time>
					</trkpt>
					<trkpt lat="47.898830" lon="6.905070">
						<ele>925</ele>
						<time>2019-07-30T09:10:22Z</time>
					</trkpt>
					<trkpt lat="47.898760" lon="6.905100">
						<ele>925</ele>
						<time>2019-07-30T09:10:23Z</time>
					</trkpt>
					<trkpt lat="47.898620" lon="6.905030">
						<ele>923</ele>
						<time>2019-07-30T09:10:27Z</time>
					</trkpt>
					<trkpt lat="47.898490" lon="6.904630">
						<ele>918</ele>
						<time>2019-07-30T09:10:34Z</time>
					</trkpt>
					<trkpt lat="47.898440" lon="6.904280">
						<ele>915</ele>
						<time>2019-07-30T09:10:39Z</time>
					</trkpt>
					<trkpt lat="47.898370" lon="6.903100">
						<ele>895</ele>
						<time>2019-07-30T09:10:58Z</time>
					</trkpt>
					<trkpt lat="47.898300" lon="6.902750">
						<ele>888</ele>
						<time>2019-07-30T09:11:04Z</time>
					</trkpt>
					<trkpt lat="47.897850" lon="6.901880">
						<ele>878</ele>
						<time>2019-07-30T09:11:21Z</time>
					</trkpt>
					<trkpt lat="47.897420" lon="6.901410">
						<ele>871</ele>
						<time>2019-07-30T09:11:33Z</time>
					</trkpt>
					<trkpt lat="47.895960" lon="6.900270">
						<ele>862</ele>
						<time>2019-07-30T09:12:12Z</time>
					</trkpt>
					<trkpt lat="47.895510" lon="6.899570">
						<ele>855</ele>
						<time>2019-07-30T09:12:27Z</time>
					</trkpt>
					<trkpt lat="47.895150" lon="6.899260">
						<ele>853</ele>
						<time>2019-07-30T09:12:37Z</time>
					</trkpt>
					<trkpt lat="47.894940" lon="6.899130">
						<ele>853</ele>
						<time>2019-07-30T09:12:42Z</time>
					</trkpt>
					<trkpt lat="47.894790" lon="6.899000">
						<ele>851</ele>
						<time>2019-07-30T09:12:46Z</time>
					</trkpt>
					<trkpt lat="47.894650" lon="6.898820">
						<ele>847</ele>
						<time>2019-07-30T09:12:50Z</time>
					</trkpt>
					<trkpt lat="47.894410" lon="6.898370">
						<ele>837</ele>
						<time>2019-07-30T09:12:59Z</time>
					</trkpt>
					<trkpt lat="47.894190" lon="6.898220">
						<ele>835</ele>
						<time>2019-07-30T09:13:05Z</time>
					</trkpt>
					<trkpt lat="47.893950" lon="6.898150">
						<ele>831</ele>
						<time>2019-07-30T09:13:11Z</time>
					</trkpt>
					<trkpt lat="47.893250" lon="6.898360">
						<ele>828</ele>
						<time>2019-07-30T09:13:27Z</time>
					</trkpt>
					<trkpt lat="47.893140" lon="6.898450">
						<ele>827</ele>
						<time>2019-07-30T09:13:30Z</time>
					</trkpt>
					<trkpt lat="47.892780" lon="6.898940">
						<ele>831</ele>
						<time>2019-07-30T09:13:42Z</time>
					</trkpt>
					<trkpt lat="47.892600" lon="6.899050">
						<ele>830</ele>
						<time>2019-07-30T09:13:46Z</time>
					</trkpt>
					<trkpt lat="47.892460" lon="6.899020">
						<ele>826</ele>
						<time>2019-07-30T09:13:50Z</time>
					</trkpt>
					<trkpt lat="47.891460" lon="6.898450">
						<ele>802</ele>
						<time>2019-07-30T09:14:15Z</time>
					</trkpt>
					<trkpt lat="47.891130" lon="6.898120">
						<ele>796</ele>
						<time>2019-07-30T09:14:24Z</time>
					</trkpt>
					<trkpt lat="47.891080" lon="6.898010">
						<ele>795</ele>
						<time>2019-07-30T09:14:26Z</time>
					</trkpt>
					<trkpt lat="47.891060" lon="6.897890">
						<ele>796</ele>
						<time>2019-07-30T09:14:28Z</time>
					</trkpt>
					<trkpt lat="47.891100" lon="6.897740">
						<ele>796</ele>
						<time>2019-07-30T09:14:30Z</time>
					</trkpt>
					<trkpt lat="47.891140" lon="6.897660">
						<ele>796</ele>
						<time>2019-07-30T09:14:32Z</time>
					</trkpt>
					<trkpt lat="47.891260" lon="6.897540">
						<ele>797</ele>
						<time>2019-07-30T09:14:35Z</time>
					</trkpt>
					<trkpt lat="47.891490" lon="6.897410">
						<ele>797</ele>
						<time>2019-07-30T09:14:41Z</time>
					</trkpt>
					<trkpt lat="47.891560" lon="6.897300">
						<ele>797</ele>
						<time>2019-07-30T09:14:43Z</time>
					</trkpt>
					<trkpt lat="47.891610" lon="6.897210">
						<ele>798</ele>
						<time>2019-07-30T09:14:45Z</time>
					</trkpt>
					<trkpt lat="47.891780" lon="6.896690">
						<ele>800</ele>
						<time>2019-07-30T09:14:54Z</time>
					</trkpt>
					<trkpt lat="47.891880" lon="6.896510">
						<ele>799</ele>
						<time>2019-07-30T09:14:58Z</time>
					</trkpt>
					<trkpt lat="47.891990" lon="6.896450">
						<ele>797</ele>
						<time>2019-07-30T09:15:01Z</time>
					</trkpt>
					<trkpt lat="47.892100" lon="6.896500">
						<ele>794</ele>
						<time>2019-07-30T09:15:03Z</time>
					</trkpt>
					<trkpt lat="47.892320" lon="6.896680">
						<ele>789</ele>
						<time>2019-07-30T09:15:09Z</time>
					</trkpt>
					<trkpt lat="47.892480" lon="6.896730">
						<ele>786</ele>
						<time>2019-07-30T09:15:13Z</time>
					</trkpt>
					<trkpt lat="47.892640" lon="6.896640">
						<ele>786</ele>
						<time>2019-07-30T09:15:17Z</time>
					</trkpt>
					<trkpt lat="47.892710" lon="6.896550">
						<ele>786</ele>
						<time>2019-07-30T09:15:19Z</time>
					</trkpt>
					<trkpt lat="47.892760" lon="6.896380">
						<ele>785</ele>
						<time>2019-07-30T09:15:22Z</time>
					</trkpt>
					<trkpt lat="47.892770" lon="6.896190">
						<ele>784</ele>
						<time>2019-07-30T09:15:25Z</time>
					</trkpt>
					<trkpt lat="47.892670" lon="6.895680">
						<ele>784</ele>
						<time>2019-07-30T09:15:33Z</time>
					</trkpt>
					<trkpt lat="47.892670" lon="6.895470">
						<ele>783</ele>
						<time>2019-07-30T09:15:37Z</time>
					</trkpt>
					<trkpt lat="47.892700" lon="6.895340">
						<ele>781</ele>
						<time>2019-07-30T09:15:39Z</time>
					</trkpt>
					<trkpt lat="47.892780" lon="6.895170">
						<ele>778</ele>
						<time>2019-07-30T09:15:42Z</time>
					</trkpt>
					<trkpt lat="47.892830" lon="6.894880">
						<ele>773</ele>
						<time>2019-07-30T09:15:47Z</time>
					</trkpt>
					<trkpt lat="47.892670" lon="6.894190">
						<ele>770</ele>
						<time>2019-07-30T09:15:58Z</time>
					</trkpt>
					<trkpt lat="47.892680" lon="6.894090">
						<ele>768</ele>
						<time>2019-07-30T09:16:00Z</time>
					</trkpt>
					<trkpt lat="47.892770" lon="6.893820">
						<ele>761</ele>
						<time>2019-07-30T09:16:05Z</time>
					</trkpt>
					<trkpt lat="47.892770" lon="6.893740">
						<ele>759</ele>
						<time>2019-07-30T09:16:06Z</time>
					</trkpt>
					<trkpt lat="47.892740" lon="6.893590">
						<ele>757</ele>
						<time>2019-07-30T09:16:08Z</time>
					</trkpt>
					<trkpt lat="47.892660" lon="6.893480">
						<ele>755</ele>
						<time>2019-07-30T09:16:11Z</time>
					</trkpt>
					<trkpt lat="47.892060" lon="6.893130">
						<ele>750</ele>
						<time>2019-07-30T09:16:26Z</time>
					</trkpt>
					<trkpt lat="47.891650" lon="6.892840">
						<ele>740</ele>
						<time>2019-07-30T09:16:37Z</time>
					</trkpt>
					<trkpt lat="47.891390" lon="6.892700">
						<ele>734</ele>
						<time>2019-07-30T09:16:43Z</time>
					</trkpt>
					<trkpt lat="47.891230" lon="6.892680">
						<ele>733</ele>
						<time>2019-07-30T09:16:47Z</time>
					</trkpt>
					<trkpt lat="47.891070" lon="6.892730">
						<ele>733</ele>
						<time>2019-07-30T09:16:51Z</time>
					</trkpt>
					<trkpt lat="47.890580" lon="6.892590">
						<ele>721</ele>
						<time>2019-07-30T09:17:02Z</time>
					</trkpt>
					<trkpt lat="47.890430" lon="6.892610">
						<ele>717</ele>
						<time>2019-07-30T09:17:06Z</time>
					</trkpt>
					<trkpt lat="47.890300" lon="6.892810">
						<ele>719</ele>
						<time>2019-07-30T09:17:10Z</time>
					</trkpt>
					<trkpt lat="47.889770" lon="6.894330">
						<ele>739</ele>
						<time>2019-07-30T09:17:37Z</time>
					</trkpt>
					<trkpt lat="47.889670" lon="6.894380">
						<ele>740</ele>
						<time>2019-07-30T09:17:39Z</time>
					</trkpt>
					<trkpt lat="47.889620" lon="6.892890">
						<ele>714</ele>
						<time>2019-07-30T09:18:03Z</time>
					</trkpt>
					<trkpt lat="47.889640" lon="6.892170">
						<ele>704</ele>
						<time>2019-07-30T09:18:14Z</time>
					</trkpt>
					<trkpt lat="47.889750" lon="6.890190">
						<ele>692</ele>
						<time>2019-07-30T09:18:45Z</time>
					</trkpt>
					<trkpt lat="47.889890" lon="6.889350">
						<ele>684</ele>
						<time>2019-07-30T09:18:59Z</time>
					</trkpt>
					<trkpt lat="47.889890" lon="6.889160">
						<ele>684</ele>
						<time>2019-07-30T09:19:02Z</time>
					</trkpt>
					<trkpt lat="47.889850" lon="6.888950">
						<ele>686</ele>
						<time>2019-07-30T09:19:05Z</time>
					</trkpt>
					<trkpt lat="47.889710" lon="6.888590">
						<ele>692</ele>
						<time>2019-07-30T09:19:12Z</time>
					</trkpt>
					<trkpt lat="47.889440" lon="6.887620">
						<ele>690</ele>
						<time>2019-07-30T09:19:28Z</time>
					</trkpt>
					<trkpt lat="47.889350" lon="6.887170">
						<ele>684</ele>
						<time>2019-07-30T09:19:35Z</time>
					</trkpt>
					<trkpt lat="47.889300" lon="6.886680">
						<ele>677</ele>
						<time>2019-07-30T09:19:43Z</time>
					</trkpt>
					<trkpt lat="47.889280" lon="6.885920">
						<ele>669</ele>
						<time>2019-07-30T09:19:55Z</time>
					</trkpt>
					<trkpt lat="47.889310" lon="6.885550">
						<ele>667</ele>
						<time>2019-07-30T09:20:01Z</time>
					</trkpt>
					<trkpt lat="47.889370" lon="6.885330">
						<ele>667</ele>
						<time>2019-07-30T09:20:05Z</time>
					</trkpt>
					<trkpt lat="47.889400" lon="6.885050">
						<ele>667</ele>
						<time>2019-07-30T09:20:09Z</time>
					</trkpt>
					<trkpt lat="47.889410" lon="6.884590">
						<ele>665</ele>
						<time>2019-07-30T09:20:16Z</time>
					</trkpt>
					<trkpt lat="47.889360" lon="6.881860">
						<ele>656</ele>
						<time>2019-07-30T09:20:59Z</time>
					</trkpt>
					</trkseg>
				</trk>
			</gpx>
